Time;durP1;ratioP1;P1;durP2;ratioP2;P2;SDS_P1;SDS_P2;PMS_P1;PMS_P2;Temp;Humidity;BMP_temperature;BMP_pressure;BME280_temperature;BME280_humidity;BME280_pressure;Samples;Min_cycle;Max_cycle;Signal;HPM_P1;HPM_P2
2023/08/18 00:02:22;;;;;;;11.82;5.25;;;17.80;99.90;;;;;;6156606;23;20354;-86
2023/08/18 00:04:48;;;;;;;10.48;5.13;;;17.80;99.90;;;;;;6156789;23;20351;-86
2023/08/18 00:07:15;;;;;;;10.75;4.90;;;17.80;99.90;;;;;;6156541;23;20019;-86
2023/08/18 00:09:43;;;;;;;9.25;3.58;;;17.80;99.90;;;;;;6156588;23;20009;-86
2023/08/18 00:12:09;;;;;;;11.00;4.80;;;17.70;99.90;;;;;;6132069;23;20095;-86
2023/08/18 00:14:35;;;;;;;13.07;4.88;;;17.70;99.90;;;;;;6156075;23;20016;-86
2023/08/18 00:17:00;;;;;;;9.13;3.08;;;17.70;99.90;;;;;;6155742;23;20021;-86
2023/08/18 00:19:26;;;;;;;11.90;4.60;;;17.70;99.90;;;;;;6156315;23;20013;-86
2023/08/18 00:21:52;;;;;;;9.68;4.32;;;17.70;99.90;;;;;;6156828;23;20018;-86
2023/08/18 00:24:17;;;;;;;10.13;4.72;;;17.70;99.90;;;;;;6156667;23;20013;-86
2023/08/18 00:26:45;;;;;;;9.70;2.72;;;17.80;99.90;;;;;;6132160;23;20005;-86
2023/08/18 00:29:10;;;;;;;12.25;4.80;;;17.70;99.90;;;;;;6156869;23;20009;-86
2023/08/18 00:31:36;;;;;;;14.32;5.38;;;17.70;99.90;;;;;;6158881;23;20062;-86
2023/08/18 00:34:01;;;;;;;12.13;5.30;;;17.70;99.90;;;;;;6134082;23;20020;-86
2023/08/18 00:36:27;;;;;;;12.23;4.95;;;17.70;99.90;;;;;;6158504;23;20020;-86
2023/08/18 00:38:53;;;;;;;12.70;5.50;;;17.70;99.90;;;;;;6158160;23;20013;-85
2023/08/18 00:41:19;;;;;;;11.55;5.28;;;17.70;99.90;;;;;;6158306;23;20013;-85
2023/08/18 00:43:44;;;;;;;14.00;5.70;;;17.70;99.90;;;;;;6133686;23;20128;-86
2023/08/18 00:46:10;;;;;;;12.75;5.40;;;17.70;99.90;;;;;;6157619;23;20040;-85
2023/08/18 00:48:40;;;;;;;11.82;4.82;;;17.70;99.90;;;;;;6133178;23;20009;-85
2023/08/18 00:51:05;;;;;;;10.52;2.78;;;17.70;99.90;;;;;;6157162;23;20013;-85
2023/08/18 00:53:35;;;;;;;9.75;4.47;;;17.60;99.90;;;;;;6155784;23;20144;-86
2023/08/18 00:56:01;;;;;;;12.23;4.32;;;17.60;99.90;;;;;;6155913;23;20189;-86
2023/08/18 00:58:27;;;;;;;12.20;4.57;;;17.60;99.90;;;;;;6156230;23;20600;-87
2023/08/18 01:00:53;;;;;;;11.27;4.30;;;17.70;99.90;;;;;;6157404;23;20009;-86
2023/08/18 01:03:19;;;;;;;9.80;3.97;;;17.70;99.90;;;;;;6132161;23;20020;-87
2023/08/18 01:05:44;;;;;;;10.82;2.75;;;17.70;99.90;;;;;;6156252;23;20505;-84
2023/08/18 01:08:10;;;;;;;10.43;4.22;;;17.60;99.90;;;;;;6132129;23;20044;-85
2023/08/18 01:11:05;;;;;;;10.02;3.90;;;17.60;99.90;;;;;;6156431;23;20096;-84
2023/08/18 01:13:59;;;;;;;7.60;3.35;;;17.60;99.90;;;;;;6156637;23;20328;-86
2023/08/18 01:16:28;;;;;;;11.20;3.90;;;17.60;99.90;;;;;;6133036;23;20024;-86
2023/08/18 01:18:54;;;;;;;10.95;3.90;;;17.60;99.90;;;;;;6157694;23;20020;-86
2023/08/18 01:21:22;;;;;;;11.93;4.72;;;17.60;99.90;;;;;;6157806;23;20092;-86
2023/08/18 01:23:47;;;;;;;10.48;4.35;;;17.70;99.90;;;;;;6158271;23;20013;-86
2023/08/18 01:26:13;;;;;;;9.70;3.78;;;17.60;99.90;;;;;;6132302;23;20083;-86
2023/08/18 01:28:40;;;;;;;12.10;4.18;;;17.60;99.90;;;;;;6157099;23;20040;-86
2023/08/18 01:31:15;;;;;;;9.50;3.05;;;17.60;99.90;;;;;;6157232;23;20005;-86
2023/08/18 01:33:49;;;;;;;9.77;3.85;;;17.60;99.90;;;;;;6157559;23;20362;-86
2023/08/18 01:36:22;;;;;;;10.23;3.83;;;17.60;99.90;;;;;;6157566;23;20075;-85
2023/08/18 01:38:50;;;;;;;9.80;3.28;;;17.60;99.90;;;;;;6132071;23;20092;-85
2023/08/18 01:41:23;;;;;;;9.60;3.95;;;17.60;99.90;;;;;;6157584;23;20044;-86
2023/08/18 01:43:48;;;;;;;;;;;17.60;99.90;;;;;;6134080;23;20024;-86
2023/08/18 01:46:14;;;;;;;9.23;2.85;;;17.50;99.90;;;;;;6157371;23;20261;-86
2023/08/18 01:48:39;;;;;;;8.75;3.85;;;17.50;99.90;;;;;;6132812;23;20047;-85
2023/08/18 01:51:05;;;;;;;9.82;3.80;;;17.50;99.90;;;;;;6132632;23;20013;-85
2023/08/18 01:53:31;;;;;;;10.65;4.22;;;17.60;99.90;;;;;;6132702;23;20203;-85
2023/08/18 01:56:02;;;;;;;7.63;3.08;;;17.60;99.90;;;;;;6157320;23;20525;-85
2023/08/18 01:58:28;;;;;;;9.38;4.03;;;17.50;99.90;;;;;;6156443;23;20036;-85
2023/08/18 02:00:58;;;;;;;9.70;4.63;;;17.50;99.90;;;;;;6132555;23;20462;-85
2023/08/18 02:03:24;;;;;;;11.23;4.32;;;17.60;99.90;;;;;;6133078;23;20424;-86
2023/08/18 02:05:56;;;;;;;7.90;2.72;;;17.60;99.90;;;;;;6183647;23;20079;-86
2023/08/18 02:08:22;;;;;;;11.40;4.38;;;17.50;99.90;;;;;;6157043;23;20094;-85
2023/08/18 02:10:48;;;;;;;9.73;4.30;;;17.50;99.90;;;;;;6156743;23;20020;-86
2023/08/18 02:13:14;;;;;;;9.93;2.95;;;17.50;99.90;;;;;;6133518;23;20088;-85
2023/08/18 02:15:39;;;;;;;9.70;4.80;;;17.50;99.90;;;;;;6157440;23;20139;-86
2023/08/18 02:18:05;;;;;;;10.77;4.60;;;17.50;99.90;;;;;;6132364;23;20501;-85
2023/08/18 02:20:31;;;;;;;11.05;4.68;;;17.50;99.90;;;;;;6131682;23;20159;-86
2023/08/18 02:22:57;;;;;;;9.88;3.58;;;17.50;99.90;;;;;;6132646;23;20017;-85
2023/08/18 02:25:23;;;;;;;10.70;4.93;;;17.50;99.90;;;;;;6156558;23;20005;-86
2023/08/18 02:27:49;;;;;;;12.52;5.65;;;17.50;99.90;;;;;;6156616;23;20016;-86
2023/08/18 02:30:15;;;;;;;12.30;5.90;;;17.50;99.90;;;;;;6157077;23;20005;-86
2023/08/18 02:32:41;;;;;;;12.18;6.22;;;17.50;99.90;;;;;;6157696;23;20019;-86
2023/08/18 02:35:07;;;;;;;9.77;4.40;;;17.50;99.90;;;;;;6157153;23;20017;-86
2023/08/18 02:37:33;;;;;;;11.10;5.35;;;17.50;99.90;;;;;;6183016;23;20020;-86
2023/08/18 02:39:58;;;;;;;12.00;5.80;;;17.50;99.90;;;;;;6156043;23;20044;-86
2023/08/18 02:42:24;;;;;;;11.98;5.95;;;17.50;99.90;;;;;;6157430;23;20147;-86
2023/08/18 02:44:49;;;;;;;16.27;6.65;;;17.50;99.90;;;;;;6156995;23;20013;-86
2023/08/18 02:47:17;;;;;;;12.30;6.10;;;17.50;99.90;;;;;;6132083;23;20095;-86
2023/08/18 02:49:42;;;;;;;11.88;6.15;;;17.50;99.90;;;;;;6156920;23;20024;-86
2023/08/18 02:52:09;;;;;;;11.75;5.90;;;17.50;99.90;;;;;;6156653;23;20021;-86
2023/08/18 02:54:35;;;;;;;12.05;5.63;;;17.50;99.90;;;;;;6157177;23;20024;-86
2023/08/18 02:57:01;;;;;;;11.70;4.63;;;17.50;99.90;;;;;;6156909;23;20013;-86
2023/08/18 02:59:27;;;;;;;13.15;6.25;;;17.50;99.90;;;;;;6156268;23;20009;-86
2023/08/18 03:01:52;;;;;;;12.02;4.15;;;17.50;99.90;;;;;;6156909;23;20013;-86
2023/08/18 03:04:18;;;;;;;14.80;6.97;;;17.40;99.90;;;;;;6132463;23;20041;-86
2023/08/18 03:06:44;;;;;;;10.77;6.18;;;17.50;99.90;;;;;;6132246;23;20068;-86
2023/08/18 03:09:09;;;;;;;14.40;6.05;;;17.50;99.90;;;;;;6132200;23;20025;-86
2023/08/18 03:11:35;;;;;;;14.73;7.00;;;17.50;99.90;;;;;;6156785;23;20009;-86
2023/08/18 03:14:01;;;;;;;13.23;6.47;;;17.50;99.90;;;;;;6132963;23;20016;-86
2023/08/18 03:16:26;;;;;;;12.23;6.28;;;17.50;99.90;;;;;;6156980;23;20494;-86
2023/08/18 03:18:52;;;;;;;10.02;4.07;;;17.50;99.90;;;;;;6156671;23;20082;-86
2023/08/18 03:21:18;;;;;;;12.48;5.97;;;17.50;99.90;;;;;;6157082;23;20020;-86
2023/08/18 03:23:43;;;;;;;13.10;6.22;;;17.50;99.90;;;;;;6132393;23;20362;-86
2023/08/18 03:26:09;;;;;;;10.13;3.95;;;17.50;99.90;;;;;;6156185;23;20351;-86
2023/08/18 03:28:38;;;;;;;12.95;6.70;;;17.50;99.90;;;;;;6131599;23;20016;-86
2023/08/18 03:31:05;;;;;;;12.75;6.60;;;17.50;99.90;;;;;;6155783;23;20016;-86
2023/08/18 03:33:31;;;;;;;12.95;4.80;;;17.50;99.90;;;;;;6156539;23;20013;-86
2023/08/18 03:35:57;;;;;;;13.30;6.72;;;17.40;99.90;;;;;;6156887;23;20446;-86
2023/08/18 03:38:23;;;;;;;14.02;7.28;;;17.50;99.90;;;;;;6155847;23;20044;-86
2023/08/18 03:40:49;;;;;;;13.30;7.10;;;17.50;99.90;;;;;;6156633;23;20063;-86
2023/08/18 03:43:15;;;;;;;12.95;6.85;;;17.50;99.90;;;;;;6155789;23;20059;-85
2023/08/18 03:45:41;;;;;;;13.93;7.57;;;17.50;99.90;;;;;;6132274;23;20020;-86
2023/08/18 03:48:07;;;;;;;11.63;4.43;;;17.50;99.90;;;;;;6156108;23;20013;-86
2023/08/18 03:50:32;;;;;;;13.15;4.75;;;17.50;99.90;;;;;;6132019;23;20072;-86
2023/08/18 03:52:58;;;;;;;13.02;6.57;;;17.40;99.90;;;;;;6165883;23;20013;-83
2023/08/18 03:55:23;;;;;;;11.23;6.63;;;17.50;99.90;;;;;;6165981;23;20024;-86
2023/08/18 03:57:49;;;;;;;12.63;7.05;;;17.50;99.90;;;;;;6157949;23;20013;-86
2023/08/18 04:00:15;;;;;;;12.70;6.88;;;17.50;99.90;;;;;;6133502;23;20036;-85
2023/08/18 04:02:41;;;;;;;13.27;6.88;;;17.50;99.90;;;;;;6133852;23;20045;-87
2023/08/18 04:05:06;;;;;;;14.77;7.20;;;17.50;99.90;;;;;;6159306;23;20016;-84
2023/08/18 04:07:32;;;;;;;11.73;5.30;;;17.50;99.90;;;;;;6132996;23;20009;-84
2023/08/18 04:09:57;;;;;;;12.25;7.10;;;17.50;99.90;;;;;;6158712;23;20016;-85
2023/08/18 04:12:23;;;;;;;12.48;6.22;;;17.50;99.90;;;;;;6133746;23;20458;-85
2023/08/18 04:14:49;;;;;;;11.20;6.35;;;17.50;99.90;;;;;;6134396;23;20009;-85
2023/08/18 04:17:15;;;;;;;10.07;4.75;;;17.50;99.90;;;;;;6158342;23;20091;-85
2023/08/18 04:19:40;;;;;;;11.50;6.18;;;17.50;99.90;;;;;;6134021;23;20013;-85
2023/08/18 04:22:06;;;;;;;13.35;6.13;;;17.50;99.90;;;;;;6157951;23;20009;-85
2023/08/18 04:24:31;;;;;;;11.57;6.35;;;17.50;99.90;;;;;;6133794;23;20013;-86
2023/08/18 04:27:00;;;;;;;12.23;6.10;;;17.50;99.90;;;;;;6157833;23;20074;-86
2023/08/18 04:29:26;;;;;;;8.90;3.75;;;17.50;99.90;;;;;;6133450;23;20038;-87
2023/08/18 04:31:52;;;;;;;11.40;6.00;;;17.50;99.90;;;;;;6133755;23;20709;-86
2023/08/18 04:34:18;;;;;;;10.90;4.30;;;17.50;99.90;;;;;;6134198;23;20100;-86
2023/08/18 04:36:44;;;;;;;11.75;6.22;;;17.50;99.90;;;;;;6133664;23;20008;-85
2023/08/18 04:39:11;;;;;;;10.25;6.20;;;17.50;99.90;;;;;;6133374;23;20016;-86
2023/08/18 04:41:36;;;;;;;10.30;4.65;;;17.50;99.90;;;;;;6158492;23;20009;-86
2023/08/18 04:44:03;;;;;;;11.45;5.97;;;17.50;99.90;;;;;;6133338;23;20097;-86
2023/08/18 04:46:29;;;;;;;12.63;6.07;;;17.50;99.90;;;;;;6132655;23;20009;-85
2023/08/18 04:48:55;;;;;;;11.05;6.38;;;17.50;99.90;;;;;;6157813;23;20084;-86
2023/08/18 04:51:20;;;;;;;10.73;6.47;;;17.50;99.90;;;;;;6133546;23;20084;-86
2023/08/18 04:53:46;;;;;;;10.88;5.55;;;17.60;99.90;;;;;;6134090;23;20122;-86
2023/08/18 04:56:11;;;;;;;11.35;6.50;;;17.50;99.90;;;;;;6158860;23;20017;-86
2023/08/18 04:58:37;;;;;;;13.98;6.43;;;17.60;99.90;;;;;;6134018;23;20472;-86
2023/08/18 05:01:04;;;;;;;11.57;6.13;;;17.60;99.90;;;;;;6157527;23;20401;-86
2023/08/18 05:03:29;;;;;;;10.27;5.80;;;17.60;99.90;;;;;;6157873;23;20056;-86
2023/08/18 05:06:03;;;;;;;10.57;4.90;;;17.60;99.90;;;;;;6157708;23;20351;-86
2023/08/18 05:08:29;;;;;;;9.85;5.43;;;17.50;99.90;;;;;;6156953;23;20009;-86
2023/08/18 05:11:09;;;;;;;12.60;6.43;;;17.50;99.90;;;;;;6133746;23;20013;-86
2023/08/18 05:13:36;;;;;;;12.00;5.72;;;17.60;99.90;;;;;;6133910;23;20387;-86
2023/08/18 05:16:03;;;;;;;10.50;6.53;;;17.60;99.90;;;;;;6132659;23;20458;-86
2023/08/18 05:18:29;;;;;;;10.50;3.90;;;17.50;99.90;;;;;;6157427;23;20013;-86
2023/08/18 05:21:02;;;;;;;11.90;5.95;;;17.50;99.90;;;;;;6132655;23;20012;-86
2023/08/18 05:23:28;;;;;;;10.35;4.90;;;17.60;99.90;;;;;;6157325;23;20024;-86
2023/08/18 05:25:54;;;;;;;11.73;6.32;;;17.50;99.90;;;;;;6132378;23;20009;-86
2023/08/18 05:28:21;;;;;;;11.05;5.97;;;17.50;99.90;;;;;;6157697;23;20009;-86
2023/08/18 05:30:48;;;;;;;12.45;6.40;;;17.60;99.90;;;;;;6133293;23;20008;-86
2023/08/18 05:33:14;;;;;;;13.13;6.93;;;17.60;99.90;;;;;;6132760;23;20101;-86
2023/08/18 05:35:40;;;;;;;13.52;7.03;;;17.60;99.90;;;;;;6157814;23;20020;-86
2023/08/18 05:38:11;;;;;;;13.20;7.60;;;17.70;99.90;;;;;;6157699;23;20020;-86
2023/08/18 05:40:43;;;;;;;10.75;4.80;;;17.70;99.90;;;;;;6157240;23;20095;-86
2023/08/18 05:43:09;;;;;;;12.48;5.13;;;17.60;99.90;;;;;;6157311;23;20017;-85
2023/08/18 05:45:38;;;;;;;13.65;7.90;;;17.60;99.90;;;;;;6157461;23;20006;-86
2023/08/18 05:48:04;;;;;;;14.07;7.25;;;17.60;99.90;;;;;;6156775;23;20062;-86
2023/08/18 05:50:31;;;;;;;12.15;7.15;;;17.60;99.90;;;;;;6157583;23;20448;-86
2023/08/18 05:52:57;;;;;;;14.90;7.57;;;17.70;99.90;;;;;;6132809;23;20013;-87
2023/08/18 05:55:23;;;;;;;15.93;8.27;;;17.70;99.90;;;;;;6132757;23;20052;-87
2023/08/18 05:57:49;;;;;;;11.02;5.20;;;17.70;99.90;;;;;;6157146;23;20009;-86
2023/08/18 06:00:15;;;;;;;16.40;7.50;;;17.70;99.90;;;;;;6132891;23;20336;-86
2023/08/18 06:02:42;;;;;;;14.65;7.82;;;17.70;99.90;;;;;;6132535;23;20032;-86
2023/08/18 06:05:11;;;;;;;13.18;7.30;;;17.70;99.90;;;;;;6157998;23;20059;-86
2023/08/18 06:07:39;;;;;;;14.02;5.53;;;17.80;99.90;;;;;;6155735;23;20093;-86
2023/08/18 06:10:06;;;;;;;12.88;7.50;;;17.70;99.90;;;;;;6131996;23;20044;-86
2023/08/18 06:12:31;;;;;;;12.65;7.38;;;17.70;99.90;;;;;;6156131;23;20009;-86
2023/08/18 06:14:57;;;;;;;11.60;5.90;;;17.80;99.90;;;;;;6155516;23;20019;-86
2023/08/18 06:17:23;;;;;;;12.70;7.07;;;17.80;99.90;;;;;;6156435;23;20482;-86
2023/08/18 06:19:48;;;;;;;12.38;7.10;;;17.80;99.90;;;;;;6156654;23;20073;-86
2023/08/18 06:22:14;;;;;;;14.38;7.43;;;17.80;99.90;;;;;;6156727;23;20017;-86
2023/08/18 06:24:40;;;;;;;14.57;7.57;;;17.90;99.90;;;;;;6132572;23;20019;-86
2023/08/18 06:27:05;;;;;;;12.95;7.60;;;17.90;99.90;;;;;;6156203;23;20013;-86
2023/08/18 06:29:31;;;;;;;14.70;8.00;;;17.90;99.90;;;;;;6157280;23;20013;-86
2023/08/18 06:31:56;;;;;;;16.42;7.50;;;17.90;99.90;;;;;;6132817;23;20009;-86
2023/08/18 06:34:22;;;;;;;12.73;7.93;;;17.90;99.90;;;;;;6157494;23;20478;-87
2023/08/18 06:36:48;;;;;;;19.38;5.90;;;18.00;99.90;;;;;;6157115;23;20044;-86
2023/08/18 06:39:13;;;;;;;12.43;7.35;;;17.90;99.90;;;;;;6156683;23;20454;-86
2023/08/18 06:41:42;;;;;;;15.20;7.63;;;18.00;99.90;;;;;;6157014;23;20009;-87
2023/08/18 06:44:08;;;;;;;14.23;8.52;;;18.00;99.90;;;;;;6156952;23;20009;-87
2023/08/18 06:46:33;;;;;;;12.30;6.10;;;18.00;99.90;;;;;;6156675;23;20059;-87
2023/08/18 06:49:00;;;;;;;58.35;11.75;;;18.00;99.90;;;;;;6156610;23;20009;-87
2023/08/18 06:51:26;;;;;;;51.13;11.70;;;18.00;99.90;;;;;;6157945;23;20021;-87
2023/08/18 06:53:52;;;;;;;31.95;10.35;;;18.00;99.90;;;;;;6184025;23;20019;-87
2023/08/18 06:56:17;;;;;;;45.22;11.63;;;18.10;99.90;;;;;;6155963;23;20044;-87
2023/08/18 06:58:43;;;;;;;36.70;11.18;;;18.10;99.90;;;;;;6156356;23;20009;-87
2023/08/18 07:01:08;;;;;;;16.95;6.60;;;18.10;99.90;;;;;;6157288;23;20024;-87
2023/08/18 07:03:34;;;;;;;17.40;9.85;;;18.20;99.90;;;;;;6157103;23;20009;-87
2023/08/18 07:05:59;;;;;;;15.50;8.82;;;18.20;99.90;;;;;;6156325;23;20098;-87
2023/08/18 07:08:26;;;;;;;17.52;9.32;;;18.20;99.90;;;;;;6156529;23;20012;-88
2023/08/18 07:10:51;;;;;;;15.40;9.40;;;18.30;99.90;;;;;;6156899;23;20052;-87
2023/08/18 07:13:17;;;;;;;16.30;8.77;;;18.30;99.90;;;;;;6157316;23;20016;-87
2023/08/18 07:15:42;;;;;;;15.35;9.50;;;18.30;99.90;;;;;;6133377;23;20013;-87
2023/08/18 07:18:08;;;;;;;17.08;8.38;;;18.30;99.90;;;;;;6156603;23;20013;-88
2023/08/18 07:20:34;;;;;;;16.60;8.57;;;18.30;99.90;;;;;;6157127;23;20024;-87
2023/08/18 07:22:59;;;;;;;20.15;10.07;;;18.40;99.90;;;;;;6131772;23;20064;-87
2023/08/18 07:25:25;;;;;;;15.88;9.23;;;18.40;99.90;;;;;;6156260;23;20399;-87
2023/08/18 07:27:50;;;;;;;14.38;7.07;;;18.50;99.90;;;;;;6131767;23;20367;-87
2023/08/18 07:30:16;;;;;;;17.25;9.60;;;18.40;99.90;;;;;;6132908;23;20096;-87
2023/08/18 07:32:42;;;;;;;17.48;9.95;;;18.40;99.90;;;;;;6132780;23;20091;-87
2023/08/18 07:35:08;;;;;;;17.88;10.38;;;18.40;99.90;;;;;;6132675;23;20017;-87
2023/08/18 07:37:37;;;;;;;17.45;10.25;;;18.40;99.90;;;;;;6157200;23;20058;-87
2023/08/18 07:40:07;;;;;;;14.40;7.88;;;18.40;99.90;;;;;;6158850;23;20362;-87
2023/08/18 07:42:34;;;;;;;18.48;10.25;;;18.40;99.90;;;;;;6158180;23;20017;-87
2023/08/18 07:45:00;;;;;;;15.52;9.80;;;18.40;99.90;;;;;;6133888;23;20005;-87
2023/08/18 07:47:25;;;;;;;17.17;10.93;;;18.40;99.90;;;;;;6134109;23;20408;-87
2023/08/18 07:49:51;;;;;;;19.50;10.98;;;18.40;99.90;;;;;;6134648;23;20071;-87
2023/08/18 07:52:17;;;;;;;18.13;11.35;;;18.50;99.90;;;;;;6134390;23;20009;-87
2023/08/18 07:54:43;;;;;;;16.48;10.95;;;18.50;99.90;;;;;;6134506;23;20148;-87
2023/08/18 07:57:08;;;;;;;20.67;11.73;;;18.50;99.90;;;;;;6158795;23;20112;-87
2023/08/18 07:59:34;;;;;;;21.67;12.00;;;18.50;99.90;;;;;;6159102;23;20327;-88
2023/08/18 08:01:59;;;;;;;22.40;12.30;;;18.60;99.90;;;;;;6132909;23;20095;-87
2023/08/18 08:04:25;;;;;;;20.48;10.02;;;18.60;99.90;;;;;;6133131;23;20015;-87
2023/08/18 08:06:53;;;;;;;23.05;12.95;;;18.60;99.90;;;;;;6154903;23;20020;-87
2023/08/18 08:09:21;;;;;;;22.23;12.55;;;18.60;99.90;;;;;;6158765;23;20013;-88
2023/08/18 08:11:46;;;;;;;24.80;13.55;;;18.70;99.90;;;;;;6134148;23;20355;-87
2023/08/18 08:14:12;;;;;;;22.67;13.70;;;18.70;99.90;;;;;;6134271;23;20024;-87
2023/08/18 08:16:37;;;;;;;24.92;14.32;;;18.80;99.90;;;;;;6159394;23;20016;-87
2023/08/18 08:19:05;;;;;;;25.00;14.55;;;18.80;99.90;;;;;;6157477;23;20067;-88
2023/08/18 08:21:33;;;;;;;25.35;14.23;;;18.90;99.90;;;;;;6158300;23;20015;-87
2023/08/18 08:23:59;;;;;;;25.77;15.60;;;19.00;99.90;;;;;;6133215;23;20517;-88
2023/08/18 08:26:24;;;;;;;25.30;15.13;;;19.00;99.90;;;;;;6158378;23;20013;-88
2023/08/18 08:28:50;;;;;;;25.08;14.25;;;19.10;99.90;;;;;;6157879;23;20081;-88
2023/08/18 08:31:15;;;;;;;23.98;12.88;;;19.20;99.90;;;;;;6158179;23;20346;-87
2023/08/18 08:33:41;;;;;;;26.85;14.48;;;19.20;99.90;;;;;;6159399;23;20020;-88
2023/08/18 08:36:07;;;;;;;29.00;14.60;;;19.40;99.90;;;;;;6159283;23;20017;-87
2023/08/18 08:38:32;;;;;;;22.60;13.45;;;19.40;99.90;;;;;;6158128;23;20017;-88
2023/08/18 08:41:01;;;;;;;23.05;13.15;;;19.50;99.90;;;;;;6158548;23;20351;-87
2023/08/18 08:43:27;;;;;;;25.15;13.52;;;19.60;99.90;;;;;;6157577;23;20017;-87
2023/08/18 08:45:54;;;;;;;22.40;12.68;;;19.70;99.90;;;;;;6133160;23;20009;-87
2023/08/18 08:48:23;;;;;;;20.30;12.65;;;19.70;99.90;;;;;;6132015;23;20364;-87
2023/08/18 08:50:53;;;;;;;20.98;13.05;;;19.80;99.90;;;;;;6133773;23;20048;-88
2023/08/18 08:53:27;;;;;;;22.67;12.23;;;19.90;99.90;;;;;;6184514;23;20037;-88
2023/08/18 08:55:53;;;;;;;21.15;12.35;;;19.90;99.90;;;;;;6134190;23;20056;-87
2023/08/18 08:58:19;;;;;;;19.85;12.13;;;20.00;99.90;;;;;;6132519;23;20013;-88
2023/08/18 09:00:45;;;;;;;21.88;12.38;;;20.00;99.90;;;;;;6158002;23;20121;-88
2023/08/18 09:03:11;;;;;;;22.02;11.43;;;20.10;99.90;;;;;;6158000;23;20142;-88
2023/08/18 09:05:37;;;;;;;20.35;12.57;;;20.10;99.90;;;;;;6157277;23;20015;-88
2023/08/18 09:08:03;;;;;;;18.80;12.30;;;20.10;99.90;;;;;;6157243;23;20458;-88
2023/08/18 09:10:29;;;;;;;21.50;12.68;;;20.20;99.90;;;;;;6158794;23;20013;-88
2023/08/18 09:12:55;;;;;;;18.95;10.93;;;20.10;99.90;;;;;;6134244;23;20035;-88
2023/08/18 09:15:23;;;;;;;16.85;10.82;;;20.20;99.90;;;;;;6159351;23;20017;-88
2023/08/18 09:17:50;;;;;;;20.42;11.02;;;20.30;99.90;;;;;;6133586;23;20092;-88
2023/08/18 09:20:17;;;;;;;18.00;10.13;;;20.30;99.90;;;;;;6133125;23;20017;-90
2023/08/18 09:22:43;;;;;;;17.15;10.32;;;20.30;99.90;;;;;;6157761;23;20403;-88
2023/08/18 09:25:09;;;;;;;17.08;9.93;;;20.30;99.90;;;;;;6158423;23;20021;-88
2023/08/18 09:27:34;;;;;;;16.10;10.55;;;20.30;99.90;;;;;;6132992;23;20059;-88
2023/08/18 09:30:00;;;;;;;17.25;10.45;;;20.30;99.90;;;;;;6133307;23;20013;-88
2023/08/18 09:32:27;;;;;;;17.42;10.45;;;20.30;99.90;;;;;;6158608;23;20067;-88
2023/08/18 09:34:54;;;;;;;18.02;10.18;;;20.30;99.90;;;;;;6132737;23;20017;-88
2023/08/18 09:37:20;;;;;;;19.00;10.80;;;20.30;99.90;;;;;;6156883;23;20087;-88
2023/08/18 09:39:45;;;;;;;17.67;10.88;;;20.40;99.90;;;;;;6132320;23;20017;-89
2023/08/18 09:42:12;;;;;;;15.88;10.05;;;20.40;99.90;;;;;;6133028;23;20398;-89
2023/08/18 09:44:37;;;;;;;15.70;9.63;;;20.40;99.90;;;;;;6157863;23;20490;-88
2023/08/18 09:47:05;;;;;;;16.05;9.40;;;20.50;99.90;;;;;;6132979;23;20051;-88
2023/08/18 09:49:35;;;;;;;17.27;10.45;;;20.60;99.90;;;;;;6133016;23;20020;-89
2023/08/18 09:52:06;;;;;;;15.35;9.63;;;20.60;99.90;;;;;;6133344;23;20522;-88
2023/08/18 09:54:39;;;;;;;14.50;8.88;;;20.70;99.90;;;;;;6133832;23;20014;-89
2023/08/18 09:57:10;;;;;;;13.25;9.40;;;20.80;99.90;;;;;;6132805;23;20048;-88
2023/08/18 09:59:43;;;;;;;14.75;10.60;;;20.80;99.90;;;;;;6132282;23;20009;-89
2023/08/18 10:02:17;;;;;;;14.80;9.45;;;20.90;99.90;;;;;;6132701;23;20419;-88
2023/08/18 10:04:43;;;;;;;12.25;9.23;;;20.90;99.90;;;;;;6132761;23;20013;-88
2023/08/18 10:07:10;;;;;;;14.00;9.50;;;21.00;99.90;;;;;;6157029;23;20084;-89
2023/08/18 10:09:36;;;;;;;13.20;8.65;;;21.00;99.90;;;;;;6157417;23;20013;-89
2023/08/18 10:12:02;;;;;;;13.65;9.50;;;21.10;99.90;;;;;;6133953;23;20016;-89
2023/08/18 10:14:30;;;;;;;13.63;9.05;;;21.20;99.90;;;;;;6158020;23;20072;-89
2023/08/18 10:16:56;;;;;;;15.23;9.43;;;21.20;99.90;;;;;;6133695;23;20016;-88
2023/08/18 10:19:44;;;;;;;13.25;8.35;;;21.30;99.90;;;;;;6108170;23;20025;-89
2023/08/18 10:22:10;;;;;;;14.18;10.35;;;21.40;99.90;;;;;;6133024;23;20489;-89
2023/08/18 10:24:36;;;;;;;14.93;10.48;;;21.50;99.90;;;;;;6183868;23;20009;-89
2023/08/18 10:27:06;;;;;;;12.77;8.88;;;21.50;99.90;;;;;;6157428;23;20016;-89
2023/08/18 10:29:34;;;;;;;14.15;8.40;;;21.60;99.90;;;;;;6132187;23;20350;-89
2023/08/18 10:32:08;;;;;;;13.05;8.90;;;21.60;99.90;;;;;;6132707;23;20044;-89
2023/08/18 10:34:35;;;;;;;12.77;9.15;;;21.70;99.90;;;;;;6133781;23;20016;-87
2023/08/18 10:37:03;;;;;;;13.00;8.65;;;21.70;99.90;;;;;;6157706;23;20606;-87
2023/08/18 10:39:36;;;;;;;13.00;10.20;;;21.70;99.90;;;;;;6156036;23;20005;-87
2023/08/18 10:42:05;;;;;;;;;;;21.80;99.90;;;;;;6156988;23;20012;-87
2023/08/18 10:44:31;;;;;;;14.10;9.57;;;21.80;99.90;;;;;;6156666;23;20330;-87
2023/08/18 10:46:57;;;;;;;15.15;11.00;;;21.90;99.90;;;;;;6132482;23;20009;-87
2023/08/18 10:49:23;;;;;;;15.60;10.77;;;22.00;99.90;;;;;;6154815;23;20020;-88
2023/08/18 10:51:53;;;;;;;14.02;10.75;;;22.10;99.90;;;;;;6157355;23;20005;-88
2023/08/18 10:54:19;;;;;;;13.25;9.77;;;22.20;99.90;;;;;;6131736;23;20017;-88
2023/08/18 10:56:44;;;;;;;14.48;10.60;;;22.30;99.90;;;;;;6132091;23;20013;-88
2023/08/18 10:59:10;;;;;;;18.77;10.70;;;22.50;99.90;;;;;;6155392;23;20067;-88
2023/08/18 11:01:36;;;;;;;16.83;11.23;;;22.70;99.90;;;;;;6182977;23;20012;-88
2023/08/18 11:04:03;;;;;;;14.60;11.98;;;22.90;99.90;;;;;;6156547;23;20454;-88
2023/08/18 11:06:29;;;;;;;13.95;11.68;;;23.00;99.90;;;;;;6153771;23;20021;-89
2023/08/18 11:08:55;;;;;;;14.30;11.30;;;23.00;99.90;;;;;;6137651;23;20017;-88
2023/08/18 11:11:21;;;;;;;14.45;10.57;;;23.00;99.90;;;;;;6185560;23;20005;-88
2023/08/18 11:13:46;;;;;;;15.38;11.65;;;23.00;99.90;;;;;;6158908;23;20443;-88
2023/08/18 11:16:12;;;;;;;13.43;10.98;;;23.00;99.90;;;;;;6159235;23;20017;-88
2023/08/18 11:18:41;;;;;;;17.58;10.52;;;23.10;99.90;;;;;;6158266;23;20009;-88
2023/08/18 11:21:07;;;;;;;14.65;11.23;;;23.10;99.90;;;;;;6158198;23;20092;-88
2023/08/18 11:23:34;;;;;;;12.80;11.02;;;23.10;99.90;;;;;;6156866;23;20052;-88
2023/08/18 11:26:01;;;;;;;12.90;10.40;;;23.20;99.90;;;;;;6182734;23;20009;-88
2023/08/18 11:28:27;;;;;;;15.55;11.27;;;23.20;99.90;;;;;;6183539;23;20093;-88
2023/08/18 11:30:56;;;;;;;14.70;12.15;;;23.20;99.90;;;;;;6157197;23;20060;-88
2023/08/18 11:33:25;;;;;;;16.02;13.00;;;23.20;99.90;;;;;;6157636;23;20078;-88
2023/08/18 11:35:51;;;;;;;15.43;12.45;;;23.30;99.90;;;;;;6155943;23;20097;-88
2023/08/18 11:38:17;;;;;;;17.15;13.65;;;23.30;99.90;;;;;;6155026;23;20168;-88
2023/08/18 11:40:46;;;;;;;16.92;13.90;;;23.30;99.90;;;;;;6131428;23;20455;-88
2023/08/18 11:43:12;;;;;;;16.05;14.35;;;23.40;99.90;;;;;;6155752;23;20009;-88
2023/08/18 11:45:39;;;;;;;16.20;13.63;;;23.60;99.90;;;;;;6156436;23;20418;-88
2023/08/18 11:48:05;;;;;;;16.95;15.18;;;23.80;99.90;;;;;;6131719;23;20451;-88
2023/08/18 11:50:35;;;;;;;17.58;15.20;;;24.10;99.90;;;;;;6157308;23;20434;-88
2023/08/18 11:53:03;;;;;;;15.82;14.23;;;24.30;99.90;;;;;;6132436;23;20019;-88
2023/08/18 11:55:31;;;;;;;16.95;13.32;;;24.40;99.90;;;;;;6132978;23;20028;-89
2023/08/18 11:57:57;;;;;;;15.05;12.43;;;24.60;99.90;;;;;;6155930;23;20017;-88
2023/08/18 12:00:35;;;;;;;15.38;13.20;;;24.80;99.90;;;;;;6131082;23;20028;-88
2023/08/18 12:03:03;;;;;;;15.25;12.30;;;25.00;99.90;;;;;;6156458;23;20064;-88
2023/08/18 12:05:30;;;;;;;13.90;11.23;;;25.20;99.90;;;;;;6132108;23;20451;-88
2023/08/18 12:07:59;;;;;;;14.55;11.27;;;25.40;99.90;;;;;;6156874;23;20501;-88
2023/08/18 12:10:25;;;;;;;14.55;11.38;;;25.50;99.90;;;;;;6156466;23;20021;-88
2023/08/18 12:12:54;;;;;;;14.30;11.38;;;25.60;99.90;;;;;;6132517;23;20013;-88
2023/08/18 12:15:23;;;;;;;14.32;10.88;;;25.60;99.90;;;;;;6157439;23;20013;-88
2023/08/18 12:17:49;;;;;;;13.75;11.20;;;25.60;99.90;;;;;;6156412;23;20644;-88
2023/08/18 12:20:18;;;;;;;14.38;11.45;;;25.60;99.90;;;;;;6183154;23;20021;-89
2023/08/18 12:22:48;;;;;;;13.82;10.40;;;25.70;99.90;;;;;;6156930;23;20017;-89
2023/08/18 12:25:14;;;;;;;17.45;9.88;;;25.80;99.90;;;;;;6158310;23;20438;-88
2023/08/18 12:27:41;;;;;;;13.20;9.73;;;25.90;99.90;;;;;;6159306;23;20036;-89
2023/08/18 12:30:07;;;;;;;12.68;10.48;;;26.00;99.90;;;;;;6184536;23;20005;-89
2023/08/18 12:32:33;;;;;;;13.23;9.23;;;26.20;99.90;;;;;;6185770;23;20100;-89
2023/08/18 12:34:59;;;;;;;13.25;9.57;;;26.30;99.90;;;;;;6158849;23;20423;-89